sensor_id;sensor_type;location;lat;lon;timestamp;pressure;altitude;pressure_sealevel;temperature;humidity
31299;BME280;17927;52.350;13.402;2023-04-22T00:02:07;101101.69;;;16.93;34.86
31299;BME280;17927;52.350;13.402;2023-04-22T00:04:32;101094.72;;;16.90;34.78
31299;BME280;17927;52.350;13.402;2023-04-22T00:06:58;101096.75;;;16.88;34.67
31299;BME280;17927;52.350;13.402;2023-04-22T00:09:23;101090.81;;;16.85;34.64
31299;BME280;17927;52.350;13.402;2023-04-22T00:11:49;101086.53;;;16.82;34.74
31299;BME280;17927;52.350;13.402;2023-04-22T00:14:14;101083.16;;;16.80;34.83
31299;BME280;17927;52.350;13.402;2023-04-22T00:16:40;101079.91;;;16.77;34.89
31299;BME280;17927;52.350;13.402;2023-04-22T00:19:05;101072.94;;;16.74;34.82
31299;BME280;17927;52.350;13.402;2023-04-22T00:21:30;101070.56;;;16.71;34.95
31299;BME280;17927;52.350;13.402;2023-04-22T00:23:56;101073.47;;;16.69;35.07
31299;BME280;17927;52.350;13.402;2023-04-22T00:26:22;101073.84;;;16.66;34.91
31299;BME280;17927;52.350;13.402;2023-04-22T00:28:48;101061.41;;;16.64;34.98
31299;BME280;17927;52.350;13.402;2023-04-22T00:31:13;101071.78;;;16.60;34.93
31299;BME280;17927;52.350;13.402;2023-04-22T00:33:39;101062.28;;;16.56;35.20
31299;BME280;17927;52.350;13.402;2023-04-22T00:36:04;101067.06;;;16.54;35.38
31299;BME280;17927;52.350;13.402;2023-04-22T00:38:30;101065.50;;;16.51;35.13
31299;BME280;17927;52.350;13.402;2023-04-22T00:40:56;101067.59;;;16.49;35.29
31299;BME280;17927;52.350;13.402;2023-04-22T00:43:21;101064.19;;;16.47;35.13
31299;BME280;17927;52.350;13.402;2023-04-22T00:45:48;101060.09;;;16.43;35.30
31299;BME280;17927;52.350;13.402;2023-04-22T00:48:13;101060.44;;;16.40;35.34
31299;BME280;17927;52.350;13.402;2023-04-22T00:50:39;101049.03;;;16.36;35.35
31299;BME280;17927;52.350;13.402;2023-04-22T00:53:04;101046.66;;;16.33;35.50
31299;BME280;17927;52.350;13.402;2023-04-22T00:55:29;101054.00;;;16.33;35.34
31299;BME280;17927;52.350;13.402;2023-04-22T00:57:57;101052.44;;;16.30;35.33
31299;BME280;17927;52.350;13.402;2023-04-22T01:00:22;101048.00;;;16.29;35.48
31299;BME280;17927;52.350;13.402;2023-04-22T01:02:54;101050.09;;;16.27;35.60
31299;BME280;17927;52.350;13.402;2023-04-22T01:05:20;101048.72;;;16.23;35.38
31299;BME280;17927;52.350;13.402;2023-04-22T01:07:45;101049.06;;;16.20;35.69
31299;BME280;17927;52.350;13.402;2023-04-22T01:10:11;101041.91;;;16.19;35.53
31299;BME280;17927;52.350;13.402;2023-04-22T01:12:40;101044.13;;;16.15;35.69
31299;BME280;17927;52.350;13.402;2023-04-22T01:15:06;101047.88;;;16.14;35.48
31299;BME280;17927;52.350;13.402;2023-04-22T01:17:32;101055.56;;;16.10;35.94
31299;BME280;17927;52.350;13.402;2023-04-22T01:19:57;101049.59;;;16.07;35.71
31299;BME280;17927;52.350;13.402;2023-04-22T01:22:25;101050.78;;;16.04;35.80
31299;BME280;17927;52.350;13.402;2023-04-22T01:24:52;101052.84;;;16.02;35.60
31299;BME280;17927;52.350;13.402;2023-04-22T01:27:19;101054.88;;;16.00;35.82
31299;BME280;17927;52.350;13.402;2023-04-22T01:29:44;101054.19;;;15.98;35.86
31299;BME280;17927;52.350;13.402;2023-04-22T01:32:10;101048.25;;;15.94;35.92
31299;BME280;17927;52.350;13.402;2023-04-22T01:34:35;101041.28;;;15.92;35.93
31299;BME280;17927;52.350;13.402;2023-04-22T01:37:00;101038.03;;;15.88;36.07
31299;BME280;17927;52.350;13.402;2023-04-22T01:39:26;101033.78;;;15.86;36.06
31299;BME280;17927;52.350;13.402;2023-04-22T01:41:51;101035.78;;;15.83;35.98
31299;BME280;17927;52.350;13.402;2023-04-22T01:44:17;101032.38;;;15.81;36.19
31299;BME280;17927;52.350;13.402;2023-04-22T01:46:44;101032.75;;;15.78;36.11
31299;BME280;17927;52.350;13.402;2023-04-22T01:49:09;101022.19;;;15.75;36.12
31299;BME280;17927;52.350;13.402;2023-04-22T01:51:34;101020.81;;;15.71;36.25
31299;BME280;17927;52.350;13.402;2023-04-22T01:54:00;101014.16;;;15.65;36.31
31299;BME280;17927;52.350;13.402;2023-04-22T01:56:28;101011.78;;;15.62;36.39
31299;BME280;17927;52.350;13.402;2023-04-22T01:58:53;101020.28;;;15.59;36.36
31299;BME280;17927;52.350;13.402;2023-04-22T02:01:18;101016.03;;;15.57;36.27
31299;BME280;17927;52.350;13.402;2023-04-22T02:03:43;101011.94;;;15.52;36.53
31299;BME280;17927;52.350;13.402;2023-04-22T02:06:09;101009.75;;;15.48;36.62
31299;BME280;17927;52.350;13.402;2023-04-22T02:08:34;101019.09;;;15.45;36.39
31299;BME280;17927;52.350;13.402;2023-04-22T02:10:59;101004.13;;;15.41;36.64
31299;BME280;17927;52.350;13.402;2023-04-22T02:13:25;101001.59;;;15.40;36.75
31299;BME280;17927;52.350;13.402;2023-04-22T02:15:51;100996.63;;;15.35;36.80
31299;BME280;17927;52.350;13.402;2023-04-22T02:18:17;101000.53;;;15.32;36.95
31299;BME280;17927;52.350;13.402;2023-04-22T02:20:43;101001.88;;;15.28;36.80
31299;BME280;17927;52.350;13.402;2023-04-22T02:23:09;100996.63;;;15.27;37.01
31299;BME280;17927;52.350;13.402;2023-04-22T02:25:35;100994.91;;;15.26;36.94
31299;BME280;17927;52.350;13.402;2023-04-22T02:28:01;100989.81;;;15.22;36.97
31299;BME280;17927;52.350;13.402;2023-04-22T02:30:26;100987.41;;;15.19;36.92
31299;BME280;17927;52.350;13.402;2023-04-22T02:32:52;100985.88;;;15.17;37.08
31299;BME280;17927;52.350;13.402;2023-04-22T02:35:17;100986.91;;;15.16;37.03
31299;BME280;17927;52.350;13.402;2023-04-22T02:37:42;100987.41;;;15.11;37.07
31299;BME280;17927;52.350;13.402;2023-04-22T02:40:08;100984.88;;;15.10;37.00
31299;BME280;17927;52.350;13.402;2023-04-22T02:42:33;100982.47;;;15.06;37.16
31299;BME280;17927;52.350;13.402;2023-04-22T02:44:59;100978.19;;;15.04;37.22
31299;BME280;17927;52.350;13.402;2023-04-22T02:47:24;100976.84;;;15.00;37.35
31299;BME280;17927;52.350;13.402;2023-04-22T02:49:50;100977.88;;;14.99;37.29
31299;BME280;17927;52.350;13.402;2023-04-22T02:52:15;100985.50;;;14.95;37.43
31299;BME280;17927;52.350;13.402;2023-04-22T02:54:40;100981.25;;;14.92;37.21
31299;BME280;17927;52.350;13.402;2023-04-22T02:57:05;100983.28;;;14.90;37.35
31299;BME280;17927;52.350;13.402;2023-04-22T02:59:31;100984.66;;;14.86;37.35
31299;BME280;17927;52.350;13.402;2023-04-22T03:01:57;100980.38;;;14.84;37.46
31299;BME280;17927;52.350;13.402;2023-04-22T03:04:22;100978.84;;;14.81;37.60
31299;BME280;17927;52.350;13.402;2023-04-22T03:06:49;100976.44;;;14.78;37.56
31299;BME280;17927;52.350;13.402;2023-04-22T03:09:14;100986.81;;;14.74;37.57
31299;BME280;17927;52.350;13.402;2023-04-22T03:11:39;100981.00;;;14.69;37.64
31299;BME280;17927;52.350;13.402;2023-04-22T03:14:05;100981.19;;;14.68;37.81
31299;BME280;17927;52.350;13.402;2023-04-22T03:16:32;100977.06;;;14.64;38.02
31299;BME280;17927;52.350;13.402;2023-04-22T03:18:57;100976.38;;;14.61;37.90
31299;BME280;17927;52.350;13.402;2023-04-22T03:21:22;100976.84;;;14.57;37.98
31299;BME280;17927;52.350;13.402;2023-04-22T03:23:47;100983.81;;;14.51;38.10
31299;BME280;17927;52.350;13.402;2023-04-22T03:26:13;100984.13;;;14.48;38.17
31299;BME280;17927;52.350;13.402;2023-04-22T03:28:38;100977.31;;;14.44;38.14
31299;BME280;17927;52.350;13.402;2023-04-22T03:31:04;100977.63;;;14.41;38.46
31299;BME280;17927;52.350;13.402;2023-04-22T03:33:29;100977.97;;;14.38;38.24
31299;BME280;17927;52.350;13.402;2023-04-22T03:35:55;100976.59;;;14.34;38.43
31299;BME280;17927;52.350;13.402;2023-04-22T03:38:20;100976.91;;;14.30;38.52
31299;BME280;17927;52.350;13.402;2023-04-22T03:40:45;100972.66;;;14.28;38.40
31299;BME280;17927;52.350;13.402;2023-04-22T03:43:11;100976.53;;;14.25;38.54
31299;BME280;17927;52.350;13.402;2023-04-22T03:45:36;100984.03;;;14.23;38.56
31299;BME280;17927;52.350;13.402;2023-04-22T03:48:01;100975.16;;;14.21;38.73
31299;BME280;17927;52.350;13.402;2023-04-22T03:50:27;100980.06;;;14.18;38.63
31299;BME280;17927;52.350;13.402;2023-04-22T03:52:53;100980.22;;;14.16;38.78
31299;BME280;17927;52.350;13.402;2023-04-22T03:55:18;100980.53;;;14.13;38.82
31299;BME280;17927;52.350;13.402;2023-04-22T03:57:43;100978.16;;;14.10;38.82
31299;BME280;17927;52.350;13.402;2023-04-22T04:00:09;100982.22;;;14.06;39.30
31299;BME280;17927;52.350;13.402;2023-04-22T04:02:34;100982.53;;;14.03;39.27
31299;BME280;17927;52.350;13.402;2023-04-22T04:04:59;100982.00;;;13.99;39.23
31299;BME280;17927;52.350;13.402;2023-04-22T04:07:26;100983.16;;;13.96;39.02
31299;BME280;17927;52.350;13.402;2023-04-22T04:09:51;100978.06;;;13.93;39.43
31299;BME280;17927;52.350;13.402;2023-04-22T04:12:16;100981.94;;;13.91;39.39
31299;BME280;17927;52.350;13.402;2023-04-22T04:14:41;100972.25;;;13.88;39.52
31299;BME280;17927;52.350;13.402;2023-04-22T04:17:07;100974.09;;;13.88;39.44
31299;BME280;17927;52.350;13.402;2023-04-22T04:19:38;100980.72;;;13.85;39.63
31299;BME280;17927;52.350;13.402;2023-04-22T04:22:03;100985.13;;;13.86;39.60
31299;BME280;17927;52.350;13.402;2023-04-22T04:24:28;100978.88;;;13.85;39.73
31299;BME280;17927;52.350;13.402;2023-04-22T04:26:53;100981.72;;;13.84;39.68
31299;BME280;17927;52.350;13.402;2023-04-22T04:29:19;100979.88;;;13.84;39.69
31299;BME280;17927;52.350;13.402;2023-04-22T04:31:44;100984.31;;;13.85;39.81
31299;BME280;17927;52.350;13.402;2023-04-22T04:34:09;100975.28;;;13.85;39.63
31299;BME280;17927;52.350;13.402;2023-04-22T04:36:35;100977.16;;;13.84;39.70
31299;BME280;17927;52.350;13.402;2023-04-22T04:39:00;100977.81;;;13.86;39.92
31299;BME280;17927;52.350;13.402;2023-04-22T04:41:26;100983.25;;;13.86;40.05
31299;BME280;17927;52.350;13.402;2023-04-22T04:43:52;100985.84;;;13.88;40.10
31299;BME280;17927;52.350;13.402;2023-04-22T04:46:17;100979.41;;;13.89;40.19
31299;BME280;17927;52.350;13.402;2023-04-22T04:48:45;100984.50;;;13.92;40.08
31299;BME280;17927;52.350;13.402;2023-04-22T04:51:12;100982.47;;;13.94;40.04
31299;BME280;17927;52.350;13.402;2023-04-22T04:53:39;100981.13;;;13.98;40.03
31299;BME280;17927;52.350;13.402;2023-04-22T04:56:04;100988.81;;;14.03;40.35
31299;BME280;17927;52.350;13.402;2023-04-22T04:58:29;100986.47;;;14.08;40.37
31299;BME280;17927;52.350;13.402;2023-04-22T05:00:55;100990.41;;;14.14;40.36
31299;BME280;17927;52.350;13.402;2023-04-22T05:03:20;100982.63;;;14.19;40.38
31299;BME280;17927;52.350;13.402;2023-04-22T05:05:45;100985.72;;;14.24;40.51
31299;BME280;17927;52.350;13.402;2023-04-22T05:08:13;100978.63;;;14.31;40.48
31299;BME280;17927;52.350;13.402;2023-04-22T05:10:38;100979.69;;;14.39;40.51
31299;BME280;17927;52.350;13.402;2023-04-22T05:13:03;100977.16;;;14.45;40.60
31299;BME280;17927;52.350;13.402;2023-04-22T05:15:28;100980.78;;;14.54;40.28
31299;BME280;17927;52.350;13.402;2023-04-22T05:17:54;100978.75;;;14.65;40.16
31299;BME280;17927;52.350;13.402;2023-04-22T05:20:19;100974.38;;;14.72;40.29
31299;BME280;17927;52.350;13.402;2023-04-22T05:22:45;100981.72;;;14.80;40.21
31299;BME280;17927;52.350;13.402;2023-04-22T05:25:10;100980.03;;;14.87;40.19
31299;BME280;17927;52.350;13.402;2023-04-22T05:27:35;100981.94;;;14.95;40.19
31299;BME280;17927;52.350;13.402;2023-04-22T05:30:01;100984.66;;;15.03;39.98
31299;BME280;17927;52.350;13.402;2023-04-22T05:32:26;100979.06;;;15.13;40.06
31299;BME280;17927;52.350;13.402;2023-04-22T05:34:51;100974.50;;;15.21;39.93
31299;BME280;17927;52.350;13.402;2023-04-22T05:37:17;100978.94;;;15.31;39.84
31299;BME280;17927;52.350;13.402;2023-04-22T05:39:42;100980.81;;;15.38;39.76
31299;BME280;17927;52.350;13.402;2023-04-22T05:42:07;100980.81;;;15.47;39.93
31299;BME280;17927;52.350;13.402;2023-04-22T05:44:33;100979.81;;;15.56;39.77
31299;BME280;17927;52.350;13.402;2023-04-22T05:46:58;100983.72;;;15.62;39.57
31299;BME280;17927;52.350;13.402;2023-04-22T05:49:23;100988.31;;;15.70;39.54
31299;BME280;17927;52.350;13.402;2023-04-22T05:51:49;100989.31;;;15.77;39.67
31299;BME280;17927;52.350;13.402;2023-04-22T05:54:14;100985.72;;;15.84;39.79
31299;BME280;17927;52.350;13.402;2023-04-22T05:56:39;100988.31;;;15.94;39.66
31299;BME280;17927;52.350;13.402;2023-04-22T05:59:05;100989.81;;;16.05;39.69
31299;BME280;17927;52.350;13.402;2023-04-22T06:01:30;100992.03;;;16.18;39.86
31299;BME280;17927;52.350;13.402;2023-04-22T06:03:55;100996.72;;;16.41;40.18
31299;BME280;17927;52.350;13.402;2023-04-22T06:06:21;100990.97;;;16.67;40.32
31299;BME280;17927;52.350;13.402;2023-04-22T06:08:46;100995.97;;;16.95;40.30
31299;BME280;17927;52.350;13.402;2023-04-22T06:11:12;100996.31;;;17.24;40.37
31299;BME280;17927;52.350;13.402;2023-04-22T06:13:37;100997.28;;;17.54;39.87
31299;BME280;17927;52.350;13.402;2023-04-22T06:16:02;100995.53;;;17.76;39.69
31299;BME280;17927;52.350;13.402;2023-04-22T06:18:29;100983.63;;;17.92;39.22
31299;BME280;17927;52.350;13.402;2023-04-22T06:20:56;100992.25;;;18.04;38.86
31299;BME280;17927;52.350;13.402;2023-04-22T06:23:21;100993.97;;;18.20;39.13
31299;BME280;17927;52.350;13.402;2023-04-22T06:25:47;100995.19;;;18.48;38.84
31299;BME280;17927;52.350;13.402;2023-04-22T06:28:12;100988.06;;;18.83;39.01
31299;BME280;17927;52.350;13.402;2023-04-22T06:30:37;100997.59;;;19.24;38.41
31299;BME280;17927;52.350;13.402;2023-04-22T06:33:02;100986.56;;;19.61;38.27
31299;BME280;17927;52.350;13.402;2023-04-22T06:35:28;100992.28;;;19.88;37.83
31299;BME280;17927;52.350;13.402;2023-04-22T06:37:53;100988.81;;;20.01;37.26
31299;BME280;17927;52.350;13.402;2023-04-22T06:40:18;100985.69;;;20.04;36.90
31299;BME280;17927;52.350;13.402;2023-04-22T06:42:44;100988.16;;;19.99;36.76
31299;BME280;17927;52.350;13.402;2023-04-22T06:45:09;100980.53;;;19.94;36.81
31299;BME280;17927;52.350;13.402;2023-04-22T06:47:39;100979.25;;;19.90;36.62
31299;BME280;17927;52.350;13.402;2023-04-22T06:50:08;100971.59;;;19.85;36.21
31299;BME280;17927;52.350;13.402;2023-04-22T06:52:34;100978.31;;;19.83;36.64
31299;BME280;17927;52.350;13.402;2023-04-22T06:54:59;100981.47;;;19.80;36.74
31299;BME280;17927;52.350;13.402;2023-04-22T06:57:27;100981.66;;;19.78;36.83
31299;BME280;17927;52.350;13.402;2023-04-22T06:59:52;100981.19;;;19.74;36.55
31299;BME280;17927;52.350;13.402;2023-04-22T07:02:17;100980.75;;;19.71;36.26
31299;BME280;17927;52.350;13.402;2023-04-22T07:04:43;100978.22;;;19.69;36.48
31299;BME280;17927;52.350;13.402;2023-04-22T07:07:08;100977.38;;;19.69;36.47
31299;BME280;17927;52.350;13.402;2023-04-22T07:09:33;100978.22;;;19.69;36.12
31299;BME280;17927;52.350;13.402;2023-04-22T07:12:00;100983.50;;;19.71;36.65
31299;BME280;17927;52.350;13.402;2023-04-22T07:14:25;100984.34;;;19.71;36.93
31299;BME280;17927;52.350;13.402;2023-04-22T07:16:51;100978.47;;;19.74;36.62
31299;BME280;17927;52.350;13.402;2023-04-22T07:19:16;100978.28;;;19.76;36.27
31299;BME280;17927;52.350;13.402;2023-04-22T07:21:42;100977.69;;;19.81;36.86
31299;BME280;17927;52.350;13.402;2023-04-22T07:24:07;100980.03;;;19.84;36.84
31299;BME280;17927;52.350;13.402;2023-04-22T07:26:36;100976.03;;;19.86;36.56
31299;BME280;17927;52.350;13.402;2023-04-22T07:29:02;100979.69;;;19.93;36.71
31299;BME280;17927;52.350;13.402;2023-04-22T07:31:27;100983.94;;;19.96;36.60
31299;BME280;17927;52.350;13.402;2023-04-22T07:33:53;100972.59;;;19.99;36.64
31299;BME280;17927;52.350;13.402;2023-04-22T07:36:18;100980.38;;;20.02;36.95
31299;BME280;17927;52.350;13.402;2023-04-22T07:38:43;100984.03;;;20.10;36.67
31299;BME280;17927;52.350;13.402;2023-04-22T07:41:08;100980.69;;;20.14;36.39
31299;BME280;17927;52.350;13.402;2023-04-22T07:43:34;100976.09;;;20.21;36.30
31299;BME280;17927;52.350;13.402;2023-04-22T07:45:59;100975.66;;;20.24;36.64
31299;BME280;17927;52.350;13.402;2023-04-22T07:48:24;100969.38;;;20.31;36.49
31299;BME280;17927;52.350;13.402;2023-04-22T07:50:50;100975.94;;;20.36;36.38
31299;BME280;17927;52.350;13.402;2023-04-22T07:53:15;100975.16;;;20.43;36.37
31299;BME280;17927;52.350;13.402;2023-04-22T07:55:41;100969.69;;;20.49;36.19
31299;BME280;17927;52.350;13.402;2023-04-22T07:58:07;100959.78;;;20.55;36.08
31299;BME280;17927;52.350;13.402;2023-04-22T08:00:33;100953.50;;;20.61;35.94
31299;BME280;17927;52.350;13.402;2023-04-22T08:02:58;100952.47;;;20.69;36.09
31299;BME280;17927;52.350;13.402;2023-04-22T08:05:24;100948.94;;;20.75;36.42
31299;BME280;17927;52.350;13.402;2023-04-22T08:07:49;100955.28;;;20.82;36.42
31299;BME280;17927;52.350;13.402;2023-04-22T08:10:14;100950.00;;;20.88;36.25
31299;BME280;17927;52.350;13.402;2023-04-22T08:12:40;100954.03;;;20.92;35.84
31299;BME280;17927;52.350;13.402;2023-04-22T08:15:05;100950.66;;;20.96;35.69
31299;BME280;17927;52.350;13.402;2023-04-22T08:17:31;100946.25;;;21.02;35.91
31299;BME280;17927;52.350;13.402;2023-04-22T08:19:56;100944.59;;;21.08;35.65
31299;BME280;17927;52.350;13.402;2023-04-22T08:22:21;100932.97;;;21.12;35.96
31299;BME280;17927;52.350;13.402;2023-04-22T08:24:48;100943.97;;;21.19;36.13
31299;BME280;17927;52.350;13.402;2023-04-22T08:27:13;100937.66;;;21.25;35.62
31299;BME280;17927;52.350;13.402;2023-04-22T08:29:38;100943.16;;;21.32;36.13
31299;BME280;17927;52.350;13.402;2023-04-22T08:32:03;100931.31;;;21.38;35.85
31299;BME280;17927;52.350;13.402;2023-04-22T08:34:29;100933.41;;;21.43;36.22
31299;BME280;17927;52.350;13.402;2023-04-22T08:36:54;100935.09;;;21.51;36.13
31299;BME280;17927;52.350;13.402;2023-04-22T08:39:19;100936.78;;;21.58;36.30
31299;BME280;17927;52.350;13.402;2023-04-22T08:44:11;100938.50;;;21.73;36.18
31299;BME280;17927;52.350;13.402;2023-04-22T08:46:38;100931.94;;;21.81;35.67
31299;BME280;17927;52.350;13.402;2023-04-22T08:49:04;100927.28;;;21.88;35.70
31299;BME280;17927;52.350;13.402;2023-04-22T08:51:31;100926.66;;;21.93;35.81
31299;BME280;17927;52.350;13.402;2023-04-22T08:53:58;100930.44;;;21.98;35.25
31299;BME280;17927;52.350;13.402;2023-04-22T08:56:23;100928.94;;;22.02;35.28
31299;BME280;17927;52.350;13.402;2023-04-22T08:58:49;100925.56;;;22.07;35.06
31299;BME280;17927;52.350;13.402;2023-04-22T09:01:15;100921.94;;;22.13;35.08
31299;BME280;17927;52.350;13.402;2023-04-22T09:03:42;100924.69;;;22.20;34.61
31299;BME280;17927;52.350;13.402;2023-04-22T09:06:09;100916.41;;;22.27;34.55
31299;BME280;17927;52.350;13.402;2023-04-22T09:08:35;100924.84;;;22.32;34.58
31299;BME280;17927;52.350;13.402;2023-04-22T09:11:02;100916.78;;;22.37;34.25
31299;BME280;17927;52.350;13.402;2023-04-22T09:13:27;100918.03;;;22.41;34.20
31299;BME280;17927;52.350;13.402;2023-04-22T09:15:53;100920.16;;;22.46;34.54
31299;BME280;17927;52.350;13.402;2023-04-22T09:18:18;100914.00;;;22.50;34.55
31299;BME280;17927;52.350;13.402;2023-04-22T09:20:48;100915.66;;;22.58;34.40
31299;BME280;17927;52.350;13.402;2023-04-22T09:23:14;100909.06;;;22.66;34.89
31299;BME280;17927;52.350;13.402;2023-04-22T09:25:40;100906.28;;;22.73;34.86
31299;BME280;17927;52.350;13.402;2023-04-22T09:28:10;100899.69;;;22.80;34.29
31299;BME280;17927;52.350;13.402;2023-04-22T09:30:36;100896.25;;;22.85;34.29
31299;BME280;17927;52.350;13.402;2023-04-22T09:33:04;100893.47;;;22.92;34.25
31299;BME280;17927;52.350;13.402;2023-04-22T09:35:37;100894.47;;;22.98;33.89
31299;BME280;17927;52.350;13.402;2023-04-22T09:38:04;100878.97;;;23.03;33.43
31299;BME280;17927;52.350;13.402;2023-04-22T09:40:32;100884.88;;;23.07;33.67
31299;BME280;17927;52.350;13.402;2023-04-22T09:43:01;100888.63;;;23.12;33.80
31299;BME280;17927;52.350;13.402;2023-04-22T09:45:30;100878.03;;;23.16;33.53
31299;BME280;17927;52.350;13.402;2023-04-22T09:48:19;100875.03;;;23.18;33.54
31299;BME280;17927;52.350;13.402;2023-04-22T09:50:49;100877.16;;;23.22;34.05
31299;BME280;17927;52.350;13.402;2023-04-22T09:53:18;100869.81;;;23.09;34.36
31299;BME280;17927;52.350;13.402;2023-04-22T09:55:49;100874.38;;;23.22;34.41
31299;BME280;17927;52.350;13.402;2023-04-22T09:58:18;100860.97;;;23.33;34.26
31299;BME280;17927;52.350;13.402;2023-04-22T10:00:47;100860.47;;;23.42;33.79
31299;BME280;17927;52.350;13.402;2023-04-22T10:03:13;100854.03;;;23.49;33.73
31299;BME280;17927;52.350;13.402;2023-04-22T10:05:39;100859.72;;;23.54;33.85
31299;BME280;17927;52.350;13.402;2023-04-22T10:08:06;100850.50;;;23.60;33.20
31299;BME280;17927;52.350;13.402;2023-04-22T10:10:32;100856.19;;;23.65;33.30
31299;BME280;17927;52.350;13.402;2023-04-22T10:12:59;100847.22;;;23.70;33.23
31299;BME280;17927;52.350;13.402;2023-04-22T10:15:25;100848.22;;;23.76;33.75
31299;BME280;17927;52.350;13.402;2023-04-22T10:17:52;100842.88;;;23.81;33.19
31299;BME280;17927;52.350;13.402;2023-04-22T10:20:19;100841.97;;;23.87;32.99
31299;BME280;17927;52.350;13.402;2023-04-22T10:22:46;100830.88;;;23.94;32.99
31299;BME280;17927;52.350;13.402;2023-04-22T10:25:21;100845.22;;;24.02;32.95
31299;BME280;17927;52.350;13.402;2023-04-22T10:28:04;100824.34;;;24.07;33.22
31299;BME280;17927;52.350;13.402;2023-04-22T10:30:32;100826.19;;;24.13;33.30
31299;BME280;17927;52.350;13.402;2023-04-22T10:36:04;100820.38;;;24.21;32.38
31299;BME280;17927;52.350;13.402;2023-04-22T10:39:21;100812.22;;;24.26;32.49
31299;BME280;17927;52.350;13.402;2023-04-22T10:41:28;100821.25;;;24.33;31.93
31299;BME280;17927;52.350;13.402;2023-04-22T10:43:58;100813.97;;;24.39;31.48
31299;BME280;17927;52.350;13.402;2023-04-22T10:48:55;100808.09;;;24.47;31.08
31299;BME280;17927;52.350;13.402;2023-04-22T10:51:40;100801.91;;;24.52;30.84
31299;BME280;17927;52.350;13.402;2023-04-22T10:54:54;100806.09;;;24.55;30.79
31299;BME280;17927;52.350;13.402;2023-04-22T10:57:12;100800.94;;;24.58;30.40
31299;BME280;17927;52.350;13.402;2023-04-22T11:02:07;100809.03;;;24.72;29.50
31299;BME280;17927;52.350;13.402;2023-04-22T11:04:33;100800.03;;;24.76;29.88
31299;BME280;17927;52.350;13.402;2023-04-22T11:09:46;100796.25;;;24.89;29.67
31299;BME280;17927;52.350;13.402;2023-04-22T11:17:30;100780.28;;;25.03;29.11
31299;BME280;17927;52.350;13.402;2023-04-22T11:19:57;100778.50;;;25.09;29.37
31299;BME280;17927;52.350;13.402;2023-04-22T11:22:23;100777.03;;;25.18;29.20
31299;BME280;17927;52.350;13.402;2023-04-22T11:24:59;100767.53;;;25.26;28.59
31299;BME280;17927;52.350;13.402;2023-04-22T11:27:25;100775.09;;;25.31;28.72
31299;BME280;17927;52.350;13.402;2023-04-22T11:30:05;100762.84;;;25.38;28.60
31299;BME280;17927;52.350;13.402;2023-04-22T11:32:32;100773.44;;;25.42;29.06
31299;BME280;17927;52.350;13.402;2023-04-22T11:34:57;100772.84;;;25.51;28.63
31299;BME280;17927;52.350;13.402;2023-04-22T11:37:23;100780.19;;;25.58;28.05
31299;BME280;17927;52.350;13.402;2023-04-22T11:39:49;100764.53;;;25.63;28.01
31299;BME280;17927;52.350;13.402;2023-04-22T11:42:20;100766.31;;;25.69;27.50
31299;BME280;17927;52.350;13.402;2023-04-22T11:44:49;100754.91;;;25.54;28.66
31299;BME280;17927;52.350;13.402;2023-04-22T11:47:14;100751.31;;;25.65;28.08
31299;BME280;17927;52.350;13.402;2023-04-22T11:49:39;100751.50;;;25.76;28.25
31299;BME280;17927;52.350;13.402;2023-04-22T11:52:05;100755.34;;;25.87;28.12
31299;BME280;17927;52.350;13.402;2023-04-22T11:54:34;100740.28;;;25.94;27.50
31299;BME280;17927;52.350;13.402;2023-04-22T11:57:07;100741.81;;;26.02;27.69
31299;BME280;17927;52.350;13.402;2023-04-22T11:59:34;100743.34;;;26.10;27.42
31299;BME280;17927;52.350;13.402;2023-04-22T12:01:59;100751.03;;;26.20;27.65
31299;BME280;17927;52.350;13.402;2023-04-22T12:04:24;100742.31;;;26.28;27.39
31299;BME280;17927;52.350;13.402;2023-04-22T12:06:52;100736.13;;;26.38;27.39
31299;BME280;17927;52.350;13.402;2023-04-22T12:09:18;100736.06;;;26.50;27.57
31299;BME280;17927;52.350;13.402;2023-04-22T12:11:44;100749.09;;;26.66;27.95
31299;BME280;17927;52.350;13.402;2023-04-22T12:14:10;100738.88;;;26.84;27.98
31299;BME280;17927;52.350;13.402;2023-04-22T12:16:40;100734.00;;;27.08;27.93
31299;BME280;17927;52.350;13.402;2023-04-22T12:19:05;100731.84;;;27.32;28.17
31299;BME280;17927;52.350;13.402;2023-04-22T12:21:30;100728.06;;;27.61;27.81
31299;BME280;17927;52.350;13.402;2023-04-22T12:24:01;100727.34;;;27.93;27.48
31299;BME280;17927;52.350;13.402;2023-04-22T12:26:29;100736.88;;;28.24;27.47
31299;BME280;17927;52.350;13.402;2023-04-22T12:28:56;100733.28;;;28.56;26.93
31299;BME280;17927;52.350;13.402;2023-04-22T12:31:22;100724.38;;;28.87;26.80
31299;BME280;17927;52.350;13.402;2023-04-22T12:33:48;100731.00;;;29.19;26.17
31299;BME280;17927;52.350;13.402;2023-04-22T12:36:13;100727.25;;;29.45;25.86
31299;BME280;17927;52.350;13.402;2023-04-22T12:38:38;100723.47;;;29.72;25.73
31299;BME280;17927;52.350;13.402;2023-04-22T12:41:04;100713.00;;;30.00;25.26
31299;BME280;17927;52.350;13.402;2023-04-22T12:43:31;100716.94;;;30.30;25.39
31299;BME280;17927;52.350;13.402;2023-04-22T12:45:59;100713.94;;;30.63;25.15
31299;BME280;17927;52.350;13.402;2023-04-22T12:48:24;100714.19;;;30.97;24.64
31299;BME280;17927;52.350;13.402;2023-04-22T12:50:50;100707.44;;;31.29;24.40
31299;BME280;17927;52.350;13.402;2023-04-22T12:53:15;100703.09;;;31.63;24.18
31299;BME280;17927;52.350;13.402;2023-04-22T12:55:40;100701.28;;;31.98;24.10